createdAt,value
2023-04-02T00:01:40.001Z,3.05
2023-04-02T00:04:11.823Z,3.04
2023-04-02T00:06:45.049Z,3.00
2023-04-02T00:09:14.420Z,2.95
2023-04-02T00:11:45.492Z,2.97
2023-04-02T00:14:31.408Z,3.06
2023-04-02T00:16:58.889Z,3.00
2023-04-02T00:19:54.041Z,3.00
2023-04-02T00:22:25.776Z,2.88
2023-04-02T00:24:53.522Z,2.89
2023-04-02T00:27:20.535Z,2.89
2023-04-02T00:29:51.902Z,2.95
2023-04-02T00:32:26.685Z,2.98
2023-04-02T00:34:53.361Z,2.90
2023-04-02T00:37:25.012Z,2.95
2023-04-02T00:39:52.915Z,2.85
2023-04-02T00:42:19.397Z,2.85
2023-04-02T00:44:46.036Z,2.71
2023-04-02T00:47:24.349Z,2.69
2023-04-02T00:49:55.611Z,2.69
2023-04-02T00:52:23.826Z,2.71
2023-04-02T00:55:16.323Z,2.67
2023-04-02T00:57:43.078Z,2.69
2023-04-02T01:00:35.292Z,2.57
2023-04-02T01:03:17.359Z,2.56
2023-04-02T01:05:45.287Z,2.50
2023-04-02T01:08:33.960Z,2.55
2023-04-02T01:11:28.443Z,2.56
2023-04-02T01:14:12.489Z,2.50
2023-04-02T01:16:54.060Z,2.38
2023-04-02T01:19:52.560Z,2.20
2023-04-02T01:22:18.895Z,2.16
2023-04-02T01:24:45.358Z,2.13
2023-04-02T01:27:26.650Z,2.13
2023-04-02T01:29:57.596Z,1.98
2023-04-02T01:32:25.465Z,1.93
2023-04-02T01:34:52.066Z,1.88
2023-04-02T01:37:40.174Z,1.96
2023-04-02T01:40:14.415Z,1.88
2023-04-02T01:43:08.368Z,1.88
2023-04-02T01:45:35.339Z,1.86
2023-04-02T01:48:06.040Z,1.84
2023-04-02T01:50:39.351Z,1.85
2023-04-02T01:53:12.123Z,1.97
2023-04-02T01:55:38.441Z,1.90
2023-04-02T01:58:05.653Z,1.86
2023-04-02T02:00:32.442Z,1.77
2023-04-02T02:02:59.651Z,1.80
2023-04-02T02:05:26.295Z,1.80
2023-04-02T02:07:52.857Z,1.64
2023-04-02T02:10:28.395Z,1.69
2023-04-02T02:12:55.558Z,1.70
2023-04-02T02:15:23.764Z,1.65
2023-04-02T02:17:50.318Z,1.64
2023-04-02T02:20:17.050Z,1.65
2023-04-02T02:22:47.439Z,1.69
2023-04-02T02:25:18.539Z,1.70
2023-04-02T02:28:06.211Z,1.64
2023-04-02T02:30:53.292Z,1.67
2023-04-02T02:33:21.711Z,1.55
2023-04-02T02:36:23.630Z,1.62
2023-04-02T02:39:14.126Z,1.50
2023-04-02T02:42:14.155Z,1.58
2023-04-02T02:44:43.716Z,1.55
2023-04-02T02:47:18.915Z,1.48
2023-04-02T02:49:53.345Z,1.48
2023-04-02T02:52:21.434Z,1.47
2023-04-02T02:55:06.210Z,1.46
2023-04-02T02:57:35.177Z,1.35
2023-04-02T03:00:01.894Z,1.36
2023-04-02T03:02:28.491Z,1.25
2023-04-02T03:04:55.185Z,1.27
2023-04-02T03:07:25.494Z,1.30
2023-04-02T03:10:10.704Z,1.35
2023-04-02T03:12:44.186Z,1.29
2023-04-02T03:15:29.199Z,1.22
2023-04-02T03:18:04.691Z,1.18
2023-04-02T03:20:53.510Z,1.22
2023-04-02T03:23:37.218Z,1.25
2023-04-02T03:26:19.151Z,1.24
2023-04-02T03:28:52.384Z,1.18
2023-04-02T03:31:26.626Z,1.20
2023-04-02T03:33:56.818Z,1.15
2023-04-02T03:36:25.711Z,1.14
2023-04-02T03:39:09.046Z,1.19
2023-04-02T03:41:44.921Z,1.17
2023-04-02T03:44:38.405Z,1.01
2023-04-02T03:47:10.891Z,1.00
2023-04-02T03:49:41.347Z,1.09
2023-04-02T03:52:13.323Z,0.99
2023-04-02T03:54:39.863Z,1.02
2023-04-02T03:57:11.557Z,0.90
2023-04-02T04:00:16.368Z,0.96
2023-04-02T04:02:45.479Z,0.92
2023-04-02T04:05:28.085Z,0.97
2023-04-02T04:07:57.640Z,0.96
2023-04-02T04:10:25.200Z,1.04
2023-04-02T04:12:52.629Z,0.95
2023-04-02T04:15:31.053Z,0.96
2023-04-02T04:18:05.870Z,0.87
2023-04-02T04:20:36.568Z,0.88
2023-04-02T04:23:30.895Z,0.83
2023-04-02T04:26:09.535Z,0.84
2023-04-02T04:28:44.107Z,0.81
2023-04-02T04:31:18.032Z,0.76
2023-04-02T04:33:45.745Z,0.77
2023-04-02T04:36:27.847Z,0.84
2023-04-02T04:38:55.560Z,0.81
2023-04-02T04:41:24.530Z,0.87
2023-04-02T04:44:06.753Z,0.88
2023-04-02T04:46:42.304Z,0.76
2023-04-02T04:49:11.645Z,0.77
2023-04-02T04:51:44.799Z,0.78
2023-04-02T04:54:14.705Z,0.79
2023-04-02T04:56:41.245Z,0.78
2023-04-02T04:59:17.855Z,0.84
2023-04-02T05:02:10.030Z,0.80
2023-04-02T05:04:43.252Z,0.78
2023-04-02T05:07:15.646Z,0.81
2023-04-02T05:09:44.209Z,0.77
2023-04-02T05:12:18.233Z,0.84
2023-04-02T05:15:05.599Z,0.82
2023-04-02T05:17:39.648Z,0.88
2023-04-02T05:20:23.496Z,0.75
2023-04-02T05:23:11.404Z,0.76
2023-04-02T05:25:38.074Z,0.77
2023-04-02T05:28:22.044Z,0.77
2023-04-02T05:31:06.009Z,0.76
2023-04-02T05:33:33.652Z,0.74
2023-04-02T05:36:09.396Z,0.75
2023-04-02T05:38:37.979Z,0.74
2023-04-02T05:41:15.738Z,0.75
2023-04-02T05:43:45.778Z,0.79
2023-04-02T05:46:21.267Z,0.86
2023-04-02T05:48:54.108Z,0.85
2023-04-02T05:51:35.380Z,0.85
2023-04-02T05:54:03.097Z,0.87
2023-04-02T05:56:37.837Z,0.89
2023-04-02T05:59:11.609Z,0.86
2023-04-02T06:01:45.548Z,0.88
2023-04-02T06:04:30.244Z,0.95
2023-04-02T06:07:11.217Z,0.91
2023-04-02T06:09:39.471Z,0.87
2023-04-02T06:12:37.984Z,0.88
2023-04-02T06:15:06.699Z,0.94
2023-04-02T06:17:34.701Z,0.93
2023-04-02T06:20:01.225Z,0.96
2023-04-02T06:22:33.284Z,1.01
2023-04-02T06:25:10.243Z,0.91
2023-04-02T06:27:37.153Z,0.93
2023-04-02T06:30:05.579Z,0.97
2023-04-02T06:32:32.141Z,0.97
2023-04-02T06:34:58.629Z,0.95
2023-04-02T06:37:30.036Z,1.04
2023-04-02T06:39:56.939Z,1.00
2023-04-02T06:42:37.266Z,0.99
2023-04-02T06:45:04.034Z,0.97
2023-04-02T06:47:36.426Z,0.99
2023-04-02T06:50:16.914Z,1.02
2023-04-02T06:52:48.691Z,0.99
2023-04-02T06:55:21.118Z,1.09
2023-04-02T06:57:47.807Z,0.99
2023-04-02T07:00:34.956Z,1.04
2023-04-02T07:03:01.925Z,1.08
2023-04-02T07:05:28.408Z,1.20
2023-04-02T07:07:54.887Z,1.07
2023-04-02T07:10:21.404Z,1.08
2023-04-02T07:12:48.335Z,1.04
2023-04-02T07:15:15.939Z,1.15
2023-04-02T07:17:42.756Z,1.11
2023-04-02T07:20:28.505Z,1.24
2023-04-02T07:22:55.297Z,1.15
2023-04-02T07:25:21.877Z,1.25
2023-04-02T07:27:48.491Z,1.35
2023-04-02T07:30:15.058Z,1.32
2023-04-02T07:32:41.567Z,1.32
2023-04-02T07:35:10.134Z,1.38
2023-04-02T07:37:38.208Z,1.28
2023-04-02T07:40:06.670Z,1.41
2023-04-02T07:42:33.167Z,1.33
2023-04-02T07:44:59.670Z,1.32
2023-04-02T07:47:26.521Z,1.39
2023-04-02T07:49:54.531Z,1.45
2023-04-02T07:52:21.709Z,1.36
2023-04-02T07:54:48.314Z,1.46
2023-04-02T07:57:14.820Z,1.48
2023-04-02T07:59:41.342Z,1.53
2023-04-02T08:02:19.192Z,1.54
2023-04-02T08:04:45.827Z,1.67
2023-04-02T08:07:12.701Z,1.63
2023-04-02T08:09:39.204Z,1.70
2023-04-02T08:12:05.842Z,1.72
2023-04-02T08:14:32.313Z,1.75
2023-04-02T08:16:58.914Z,1.78
2023-04-02T08:19:26.014Z,1.67
2023-04-02T08:21:53.766Z,1.67
2023-04-02T08:24:20.907Z,1.65
2023-04-02T08:26:48.227Z,1.81
2023-04-02T08:29:14.884Z,1.86
2023-04-02T08:31:41.676Z,1.90
2023-04-02T08:34:08.245Z,1.91
2023-04-02T08:36:36.619Z,1.91
2023-04-02T08:39:04.486Z,1.92
2023-04-02T08:41:34.301Z,1.80
2023-04-02T08:44:28.426Z,1.81
2023-04-02T08:47:05.030Z,1.84
2023-04-02T08:49:57.675Z,1.94
2023-04-02T08:52:26.790Z,2.05
2023-04-02T08:54:56.044Z,2.20
2023-04-02T08:57:36.641Z,2.22
2023-04-02T09:00:37.785Z,2.18
2023-04-02T09:03:16.408Z,2.16
2023-04-02T09:05:45.988Z,2.35
2023-04-02T09:08:21.033Z,2.49
2023-04-02T09:10:53.801Z,2.32
2023-04-02T09:13:24.856Z,2.30
2023-04-02T09:16:34.308Z,2.22
2023-04-02T09:19:01.027Z,2.28
2023-04-02T09:21:34.658Z,2.47
2023-04-02T09:24:02.736Z,2.37
2023-04-02T09:26:32.060Z,2.37
2023-04-02T09:29:15.775Z,2.32
2023-04-02T09:31:48.337Z,2.61
2023-04-02T09:34:34.288Z,2.51
2023-04-02T09:37:08.011Z,2.75
2023-04-02T09:39:35.512Z,2.91
2023-04-02T09:42:07.292Z,3.01
2023-04-02T09:44:33.875Z,3.23
2023-04-02T09:47:05.267Z,3.13
2023-04-02T09:49:36.681Z,3.14
2023-04-02T09:52:29.352Z,3.21
2023-04-02T09:55:29.015Z,3.18
2023-04-02T09:58:14.836Z,3.08
2023-04-02T10:00:50.123Z,2.69
2023-04-02T10:03:34.802Z,2.70
2023-04-02T10:06:05.237Z,2.83
2023-04-02T10:08:31.756Z,2.88
2023-04-02T10:11:00.571Z,2.97
2023-04-02T10:13:30.140Z,2.94
2023-04-02T10:16:09.393Z,3.05
2023-04-02T10:18:46.820Z,2.95
2023-04-02T10:21:16.223Z,3.06
2023-04-02T10:23:42.715Z,3.07
2023-04-02T10:26:17.525Z,3.16
2023-04-02T10:29:01.135Z,2.88
2023-04-02T10:31:33.433Z,2.94
2023-04-02T10:34:02.603Z,3.03
2023-04-02T10:36:54.536Z,3.10
2023-04-02T10:39:25.728Z,3.09
2023-04-02T10:42:14.589Z,3.11
2023-04-02T10:45:01.825Z,3.04
2023-04-02T10:47:45.857Z,2.91
2023-04-02T10:50:32.353Z,3.09
2023-04-02T10:53:13.642Z,3.18
2023-04-02T10:55:43.600Z,3.12
2023-04-02T10:58:24.980Z,3.10
2023-04-02T11:00:56.668Z,3.35
2023-04-02T11:03:44.889Z,3.28
2023-04-02T11:06:18.652Z,3.22
2023-04-02T11:08:47.365Z,3.30
2023-04-02T11:11:25.083Z,3.42
2023-04-02T11:14:02.354Z,3.74
2023-04-02T11:16:29.254Z,4.38
2023-04-02T11:19:14.488Z,4.82
2023-04-02T11:21:57.918Z,4.91
2023-04-02T11:24:32.922Z,5.07
2023-04-02T11:27:11.571Z,5.32
2023-04-02T11:29:45.485Z,5.03
2023-04-02T11:32:24.294Z,5.20
2023-04-02T11:35:06.639Z,4.69
2023-04-02T11:37:44.942Z,4.42
2023-04-02T11:40:11.647Z,4.50
2023-04-02T11:42:40.556Z,4.02
2023-04-02T11:45:22.134Z,3.84
2023-04-02T11:48:17.532Z,4.11
2023-04-02T11:50:44.639Z,4.01
2023-04-02T11:53:11.479Z,4.03
2023-04-02T11:55:41.690Z,4.16
2023-04-02T11:58:30.189Z,4.10
2023-04-02T12:01:04.443Z,4.20
2023-04-02T12:03:46.708Z,4.04
2023-04-02T12:06:32.230Z,4.06
2023-04-02T12:09:18.551Z,4.25
2023-04-02T12:11:45.212Z,4.23
2023-04-02T12:14:36.632Z,4.27
2023-04-02T12:17:05.783Z,4.13
2023-04-02T12:19:33.635Z,4.24
2023-04-02T12:22:00.446Z,4.07
2023-04-02T12:24:31.047Z,3.99
2023-04-02T12:27:17.378Z,4.00
2023-04-02T12:29:43.894Z,3.86
2023-04-02T12:32:21.860Z,4.05
2023-04-02T12:34:48.376Z,3.96
2023-04-02T12:37:26.309Z,3.97
2023-04-02T12:40:07.367Z,3.92
2023-04-02T12:42:35.497Z,3.97
2023-04-02T12:45:02.562Z,3.90
2023-04-02T12:47:29.053Z,4.05
2023-04-02T12:49:56.500Z,4.12
2023-04-02T12:52:28.405Z,3.93
2023-04-02T12:54:59.553Z,4.10
2023-04-02T12:57:26.134Z,4.24
2023-04-02T12:59:53.744Z,4.22
2023-04-02T13:02:30.921Z,4.38
2023-04-02T13:05:01.007Z,4.50
2023-04-02T13:07:30.201Z,4.49
2023-04-02T13:09:58.596Z,4.48
2023-04-02T13:12:39.298Z,4.63
2023-04-02T13:15:07.958Z,4.49
2023-04-02T13:17:45.297Z,4.53
2023-04-02T13:20:34.886Z,4.41
2023-04-02T13:23:23.905Z,4.47
2023-04-02T13:25:50.636Z,4.27
2023-04-02T13:28:17.127Z,4.45
2023-04-02T13:30:43.603Z,4.64
2023-04-02T13:33:10.334Z,5.17
2023-04-02T13:35:36.878Z,5.07
2023-04-02T13:38:04.002Z,5.56
2023-04-02T13:40:31.089Z,5.89
2023-04-02T13:42:57.826Z,6.28
2023-04-02T13:45:36.316Z,6.09
2023-04-02T13:48:03.469Z,6.42
2023-04-02T13:50:32.081Z,6.20
2023-04-02T13:53:00.368Z,6.33
2023-04-02T13:55:28.202Z,6.49
2023-04-02T13:57:55.525Z,7.45
2023-04-02T14:00:22.031Z,6.90
2023-04-02T14:02:51.044Z,6.99
2023-04-02T14:05:34.926Z,7.38
2023-04-02T14:08:09.565Z,7.39
2023-04-02T14:11:01.994Z,6.71
2023-04-02T14:13:28.328Z,6.28
2023-04-02T14:16:07.133Z,5.77
2023-04-02T14:18:41.221Z,6.14
2023-04-02T14:21:46.110Z,6.55
2023-04-02T14:24:33.866Z,6.84
2023-04-02T14:27:25.005Z,7.12
2023-04-02T14:30:21.159Z,6.89
2023-04-02T14:32:58.065Z,6.49
2023-04-02T14:35:37.263Z,7.03
2023-04-02T14:38:31.836Z,7.33
2023-04-02T14:40:59.955Z,7.11
2023-04-02T14:43:30.352Z,6.97
2023-04-02T14:45:58.267Z,6.78
2023-04-02T14:48:27.662Z,6.64
2023-04-02T14:50:58.476Z,6.74
2023-04-02T14:53:29.190Z,6.54
2023-04-02T14:55:56.325Z,6.95
2023-04-02T14:58:25.826Z,7.18
2023-04-02T15:01:00.769Z,7.20
2023-04-02T15:03:36.430Z,6.69
2023-04-02T15:06:06.501Z,6.69
2023-04-02T15:08:40.874Z,6.71
2023-04-02T15:11:15.367Z,6.47
2023-04-02T15:14:18.890Z,6.29
2023-04-02T15:16:45.415Z,6.42
2023-04-02T15:19:18.658Z,6.36
2023-04-02T15:22:08.084Z,6.28
2023-04-02T15:24:44.481Z,6.47
2023-04-02T15:27:29.608Z,6.39
2023-04-02T15:30:23.581Z,6.41
2023-04-02T15:32:50.486Z,6.38
2023-04-02T15:35:35.508Z,6.15
2023-04-02T15:38:22.734Z,6.34
2023-04-02T15:41:07.625Z,6.16
2023-04-02T15:43:39.150Z,6.14
2023-04-02T15:46:14.768Z,6.13
2023-04-02T15:48:55.469Z,6.13
2023-04-02T15:51:36.448Z,6.21
2023-04-02T15:54:18.083Z,6.42
2023-04-02T15:57:09.500Z,6.15
2023-04-02T15:59:54.522Z,6.06
2023-04-02T16:02:44.467Z,5.98
2023-04-02T16:05:18.848Z,5.87
2023-04-02T16:08:04.789Z,6.03
2023-04-02T16:10:42.512Z,5.90
2023-04-02T16:13:28.681Z,5.87
2023-04-02T16:16:19.582Z,5.72
2023-04-02T16:19:15.962Z,5.65
2023-04-02T16:21:49.150Z,5.84
2023-04-02T16:24:15.645Z,5.98
2023-04-02T16:27:07.335Z,6.09
2023-04-02T16:29:44.026Z,6.09
2023-04-02T16:32:39.214Z,6.06
2023-04-02T16:35:42.358Z,5.83
2023-04-02T16:38:19.051Z,5.95
2023-04-02T16:41:08.521Z,5.90
2023-04-02T16:44:12.856Z,5.74
2023-04-02T16:46:45.257Z,5.72
2023-04-02T16:49:30.742Z,5.52
2023-04-02T16:52:08.297Z,5.39
2023-04-02T16:54:44.525Z,5.26
2023-04-02T16:57:36.654Z,5.20
2023-04-02T17:00:20.044Z,5.13
2023-04-02T17:03:18.277Z,5.04
2023-04-02T17:06:08.772Z,5.00
2023-04-02T17:08:51.475Z,4.93
2023-04-02T17:11:24.057Z,4.97
2023-04-02T17:14:05.779Z,4.99
2023-04-02T17:16:41.666Z,4.88
2023-04-02T17:19:10.302Z,5.02
2023-04-02T17:21:38.057Z,5.04
2023-04-02T17:24:17.599Z,5.12
2023-04-02T17:26:49.921Z,5.12
2023-04-02T17:29:20.254Z,5.21
2023-04-02T17:31:46.979Z,5.18
2023-04-02T17:34:14.911Z,5.28
2023-04-02T17:37:00.484Z,5.07
2023-04-02T17:39:47.087Z,5.07
2023-04-02T17:42:41.621Z,5.05
2023-04-02T17:45:11.446Z,4.94
2023-04-02T17:47:56.060Z,4.94
2023-04-02T17:50:28.529Z,4.88
2023-04-02T17:53:28.235Z,4.83
2023-04-02T17:56:18.826Z,4.84
2023-04-02T17:58:55.591Z,4.76
2023-04-02T18:01:36.149Z,4.69
2023-04-02T18:04:09.914Z,4.65
2023-04-02T18:06:59.629Z,4.57
2023-04-02T18:09:39.545Z,4.62
2023-04-02T18:12:27.806Z,4.64
2023-04-02T18:15:03.510Z,4.60
2023-04-02T18:17:46.146Z,4.71
2023-04-02T18:20:31.917Z,4.72
2023-04-02T18:23:19.966Z,4.70
2023-04-02T18:25:56.125Z,4.57
2023-04-02T18:28:47.460Z,4.63
2023-04-02T18:32:02.180Z,4.67
2023-04-02T18:34:42.268Z,4.58
2023-04-02T18:37:59.387Z,4.71
2023-04-02T18:40:27.135Z,4.61
2023-04-02T18:43:17.149Z,4.66
2023-04-02T18:46:01.486Z,4.64
2023-04-02T18:48:45.797Z,4.59
2023-04-02T18:51:19.749Z,4.51
2023-04-02T18:53:46.223Z,4.44
2023-04-02T18:56:20.052Z,4.30
2023-04-02T18:58:46.788Z,4.30
2023-04-02T19:01:14.508Z,4.23
2023-04-02T19:03:52.746Z,4.21
2023-04-02T19:06:22.083Z,4.22
2023-04-02T19:08:50.361Z,4.13
2023-04-02T19:11:28.470Z,4.14
2023-04-02T19:13:56.087Z,4.17
2023-04-02T19:16:41.808Z,4.20
2023-04-02T19:19:24.990Z,4.08
2023-04-02T19:21:54.222Z,4.00
2023-04-02T19:24:43.189Z,3.97
2023-04-02T19:27:38.009Z,4.02
2023-04-02T19:30:29.386Z,3.96
2023-04-02T19:33:17.133Z,3.92
2023-04-02T19:35:53.866Z,3.90
2023-04-02T19:38:39.912Z,3.90
2023-04-02T19:41:31.720Z,3.91
2023-04-02T19:43:58.201Z,3.93
2023-04-02T19:46:24.675Z,3.84
2023-04-02T19:49:08.504Z,3.66
2023-04-02T19:51:34.964Z,3.79
2023-04-02T19:54:01.415Z,3.77
2023-04-02T19:56:28.104Z,3.72
2023-04-02T19:58:55.414Z,3.63
2023-04-02T20:01:23.372Z,3.53
2023-04-02T20:03:49.902Z,3.63
2023-04-02T20:06:17.418Z,3.48
2023-04-02T20:08:44.167Z,3.46
2023-04-02T20:11:10.674Z,3.46
2023-04-02T20:13:37.179Z,3.45
2023-04-02T20:16:04.486Z,3.34
2023-04-02T20:18:31.404Z,3.18
2023-04-02T20:20:57.961Z,3.21
2023-04-02T20:23:24.482Z,3.02
2023-04-02T20:25:54.803Z,3.16
2023-04-02T20:28:21.984Z,3.11
2023-04-02T20:30:50.236Z,3.09
2023-04-02T20:33:21.186Z,3.04
2023-04-02T20:35:49.165Z,2.79
2023-04-02T20:38:15.683Z,2.79
2023-04-02T20:40:42.319Z,2.66
2023-04-02T20:43:11.956Z,2.77
2023-04-02T20:45:38.865Z,2.88
2023-04-02T20:48:05.619Z,2.89
2023-04-02T20:50:32.503Z,2.80
2023-04-02T20:52:59.032Z,2.85
2023-04-02T20:55:25.602Z,2.58
2023-04-02T20:57:52.077Z,2.59
2023-04-02T21:00:18.743Z,2.57
2023-04-02T21:02:45.412Z,2.73
2023-04-02T21:05:11.962Z,2.63
2023-04-02T21:07:38.465Z,2.47
2023-04-02T21:10:05.572Z,2.52
2023-04-02T21:12:32.050Z,2.49
2023-04-02T21:15:01.039Z,2.47
2023-04-02T21:17:29.205Z,2.47
2023-04-02T21:19:55.816Z,2.32
2023-04-02T21:22:22.347Z,2.34
2023-04-02T21:24:51.805Z,2.44
2023-04-02T21:27:18.274Z,2.46
2023-04-02T21:29:44.761Z,2.40
2023-04-02T21:32:20.723Z,2.26
2023-04-02T21:34:48.309Z,2.21
2023-04-02T21:37:14.792Z,2.14
2023-04-02T21:39:41.483Z,2.15
2023-04-02T21:42:07.954Z,2.07
2023-04-02T21:44:34.440Z,2.05
2023-04-02T21:47:00.946Z,2.03
2023-04-02T21:49:27.475Z,1.91
2023-04-02T21:51:54.039Z,1.90
2023-04-02T21:54:20.555Z,1.88
2023-04-02T21:56:47.105Z,1.94
2023-04-02T21:59:14.267Z,1.84
2023-04-02T22:01:45.831Z,1.88
2023-04-02T22:04:17.175Z,1.89
2023-04-02T22:06:43.855Z,1.86
2023-04-02T22:09:15.597Z,1.83
2023-04-02T22:11:44.512Z,1.81
2023-04-02T22:14:11.089Z,1.81
2023-04-02T22:16:37.745Z,1.75
2023-04-02T22:19:08.914Z,1.71
2023-04-02T22:21:35.646Z,1.71
2023-04-02T22:24:03.084Z,1.68
2023-04-02T22:26:29.897Z,1.66
2023-04-02T22:28:56.649Z,1.62
2023-04-02T22:31:24.569Z,1.53
2023-04-02T22:33:51.220Z,1.43
2023-04-02T22:36:17.903Z,1.53
2023-04-02T22:38:44.679Z,1.49
2023-04-02T22:41:16.126Z,1.27
2023-04-02T22:43:43.997Z,1.26
2023-04-02T22:46:11.381Z,1.30
2023-04-02T22:48:39.686Z,1.23
2023-04-02T22:51:07.630Z,1.20
2023-04-02T22:53:34.640Z,1.25
2023-04-02T22:56:12.953Z,1.22
2023-04-02T22:58:39.496Z,1.27
2023-04-02T23:01:07.368Z,1.20
2023-04-02T23:03:33.910Z,1.12
2023-04-02T23:06:01.291Z,1.03
2023-04-02T23:08:27.775Z,1.03
2023-04-02T23:11:04.587Z,0.95
2023-04-02T23:13:31.154Z,0.95
2023-04-02T23:15:57.739Z,1.00
2023-04-02T23:18:24.268Z,1.07
2023-04-02T23:20:50.753Z,0.88
2023-04-02T23:23:17.234Z,0.78
2023-04-02T23:25:43.700Z,0.83
2023-04-02T23:28:11.621Z,0.87
2023-04-02T23:30:38.250Z,0.80
2023-04-02T23:33:04.930Z,0.83
2023-04-02T23:35:31.510Z,0.71
2023-04-02T23:37:58.048Z,0.57
2023-04-02T23:40:24.515Z,0.59
2023-04-02T23:42:51.281Z,0.58
2023-04-02T23:45:17.761Z,0.63
2023-04-02T23:47:44.311Z,0.64
2023-04-02T23:50:10.877Z,0.54
2023-04-02T23:52:37.373Z,0.50
2023-04-02T23:55:04.114Z,0.54
2023-04-02T23:57:30.815Z,0.52
2023-04-02T23:59:57.354Z,0.41
